Time;durP1;ratioP1;P1;durP2;ratioP2;P2;SDS_P1;SDS_P2;PMS_P1;PMS_P2;Temp;Humidity;BMP_temperature;BMP_pressure;BME280_temperature;BME280_humidity;BME280_pressure;Samples;Min_cycle;Max_cycle;Signal;HPM_P1;HPM_P2
2022/11/16 07:30:37;;;;;;;5.63;3.58;;;11.20;99.90;;;;;;12105411;23;20053;-79
2022/11/16 07:35:39;;;;;;;5.30;3.47;;;11.20;99.90;;;;;;10176219;29;20052;-76
2022/11/16 07:40:44;;;;;;;6.45;3.13;;;11.20;99.90;;;;;;10162189;29;20052;-76
2022/11/16 07:45:47;;;;;;;6.22;3.60;;;11.30;99.90;;;;;;10136727;29;20115;-79
2022/11/16 07:50:49;;;;;;;6.13;3.03;;;11.20;99.90;;;;;;10136515;29;20092;-78
2022/11/16 07:55:54;;;;;;;4.88;3.05;;;11.20;99.90;;;;;;10168116;29;20085;-79
2022/11/16 08:01:04;;;;;;;4.95;2.78;;;11.20;99.90;;;;;;10176571;29;20048;-78
2022/11/16 08:06:11;;;;;;;4.40;2.65;;;11.20;99.90;;;;;;10177104;29;20059;-77
2022/11/16 08:11:13;;;;;;;5.28;2.40;;;11.30;99.90;;;;;;10175624;29;20107;-77
2022/11/16 08:16:19;;;;;;;4.50;2.50;;;11.40;99.90;;;;;;10142110;29;20052;-76
2022/11/16 08:21:21;;;;;;;4.38;2.58;;;11.50;99.90;;;;;;10161555;29;20052;-77
2022/11/16 08:26:23;;;;;;;5.80;3.00;;;11.60;99.90;;;;;;10136228;29;20056;-75
2022/11/16 08:31:28;;;;;;;5.07;3.15;;;11.70;99.90;;;;;;10135463;29;20108;-76
2022/11/16 08:36:30;;;;;;;13.75;6.60;;;11.70;99.90;;;;;;10168885;29;20064;-76
2022/11/16 08:41:36;;;;;;;5.78;3.00;;;11.90;99.90;;;;;;10157854;29;20048;-77
2022/11/16 08:46:39;;;;;;;6.88;3.08;;;11.90;99.90;;;;;;10166855;29;20062;-74
2022/11/16 08:51:41;;;;;;;5.00;2.72;;;12.00;99.90;;;;;;10142375;29;20120;-77
2022/11/16 08:56:43;;;;;;;5.95;2.60;;;11.90;99.90;;;;;;10129814;29;20061;-77
2022/11/16 09:01:46;;;;;;;5.07;2.17;;;12.00;99.90;;;;;;10148189;29;20049;-77
2022/11/16 09:06:48;;;;;;;3.65;2.10;;;12.00;99.90;;;;;;10169624;29;20056;-76
2022/11/16 09:11:52;;;;;;;3.88;2.10;;;12.10;99.90;;;;;;10156207;29;20052;-78
2022/11/16 09:16:55;;;;;;;4.35;1.92;;;12.10;99.90;;;;;;10168349;29;20088;-76
2022/11/16 09:21:57;;;;;;;3.90;1.60;;;12.10;99.90;;;;;;10168213;29;20075;-79
2022/11/16 09:27:00;;;;;;;4.70;1.40;;;12.20;99.90;;;;;;10168433;29;20545;-76
2022/11/16 09:32:04;;;;;;;2.92;1.27;;;12.30;99.90;;;;;;10171486;29;20063;-78
2022/11/16 09:37:06;;;;;;;3.97;1.27;;;12.40;99.90;;;;;;10175222;29;20081;-77
2022/11/16 09:42:28;;;;;;;3.85;1.48;;;12.40;99.90;;;;;;10174961;29;20406;-77
2022/11/16 09:47:47;;;;;;;2.70;1.17;;;12.40;99.90;;;;;;10171752;29;20123;-77
2022/11/16 09:52:52;;;;;;;3.70;1.50;;;12.60;99.90;;;;;;10172702;29;20060;-79
2022/11/16 09:57:58;;;;;;;3.38;1.30;;;12.80;99.90;;;;;;10172908;29;20076;-74
2022/11/16 10:03:09;;;;;;;3.53;1.50;;;12.70;99.90;;;;;;10165856;29;20477;-73
2022/11/16 10:08:21;;;;;;;3.28;1.17;;;12.80;99.90;;;;;;10136016;29;20112;-74
2022/11/16 10:13:39;;;;;;;4.53;1.20;;;12.90;99.90;;;;;;10136262;29;20088;-78
2022/11/16 10:18:54;;;;;;;2.97;1.10;;;12.90;99.90;;;;;;10165413;29;20072;-74
2022/11/16 10:24:21;;;;;;;5.47;1.17;;;13.00;99.90;;;;;;10154456;29;20040;-74
2022/11/16 10:29:44;;;;;;;3.75;1.33;;;12.90;99.90;;;;;;10167746;29;20044;-76
2022/11/16 10:34:52;;;;;;;3.42;1.15;;;12.90;99.90;;;;;;10170362;29;20064;-77
2022/11/16 10:39:54;;;;;;;3.60;1.08;;;12.90;99.90;;;;;;10170526;29;20048;-76
2022/11/16 10:45:04;;;;;;;3.53;0.95;;;12.90;99.90;;;;;;10168049;29;20056;-73
2022/11/16 10:50:28;;;;;;;2.05;0.82;;;12.90;99.90;;;;;;10127810;29;20525;-76
2022/11/16 10:55:30;;;;;;;5.35;1.10;;;13.00;99.90;;;;;;10134451;29;20076;-72
2022/11/16 11:00:44;;;;;;;4.00;0.90;;;13.00;99.90;;;;;;10155988;29;20052;-74
2022/11/16 11:05:54;;;;;;;4.30;1.08;;;13.20;99.90;;;;;;10157564;29;20056;-73
2022/11/16 11:12:36;;;;;;;3.70;0.90;;;13.20;99.90;;;;;;10135662;29;20490;-75
2022/11/16 11:16:26;;;;;;;;;;;13.20;99.90;;;;;;10135069;29;20193;-74
2022/11/16 11:21:30;;;;;;;2.30;0.90;;;13.20;99.90;;;;;;10144509;29;19934;-75
2022/11/16 11:26:36;;;;;;;2.65;0.95;;;13.20;99.90;;;;;;10133328;29;20052;-75
2022/11/16 11:31:45;;;;;;;5.20;1.10;;;13.20;99.90;;;;;;10168925;29;20068;-75
2022/11/16 11:36:53;;;;;;;4.57;1.02;;;13.10;99.90;;;;;;10139431;29;20160;-76
2022/11/16 11:42:04;;;;;;;3.10;1.10;;;13.30;99.90;;;;;;10154111;29;20072;-75
2022/11/16 11:47:25;;;;;;;5.40;0.90;;;13.50;99.90;;;;;;10131375;29;20049;-75
2022/11/16 11:52:39;;;;;;;3.20;0.70;;;13.70;99.90;;;;;;10131289;29;20056;-77
2022/11/16 11:57:44;;;;;;;5.82;0.90;;;13.90;99.20;;;;;;10129926;29;20088;-76
2022/11/16 12:03:24;;;;;;;4.60;0.90;;;14.00;98.00;;;;;;10131639;29;20067;-74
2022/11/16 12:08:46;;;;;;;3.88;0.85;;;14.30;97.70;;;;;;10166482;29;20550;-74
2022/11/16 12:14:04;;;;;;;6.20;0.98;;;14.60;97.00;;;;;;10140831;29;20131;-74
2022/11/16 12:19:47;;;;;;;8.05;3.00;;;14.90;96.00;;;;;;10130044;29;20052;-77
2022/11/16 12:25:06;;;;;;;3.53;0.95;;;15.20;95.30;;;;;;10165264;29;20622;-77
2022/11/16 12:30:13;;;;;;;5.03;1.00;;;15.50;94.70;;;;;;10164829;29;20107;-77
2022/11/16 12:35:30;;;;;;;4.32;0.85;;;15.90;94.70;;;;;;10160183;29;20131;-78
2022/11/16 12:40:53;;;;;;;3.22;0.90;;;16.20;93.70;;;;;;10154042;29;20060;-77
2022/11/16 12:46:09;;;;;;;3.42;0.63;;;16.60;92.90;;;;;;10129372;29;20550;-78
2022/11/16 12:51:25;;;;;;;3.47;0.70;;;16.80;91.30;;;;;;10130989;29;20091;-79
2022/11/16 12:56:40;;;;;;;3.30;0.80;;;17.00;90.50;;;;;;10150383;29;20538;-78
2022/11/16 13:01:53;;;;;;;4.43;0.80;;;17.90;88.60;;;;;;10150306;29;20096;-77
2022/11/16 13:07:03;;;;;;;4.15;0.93;;;18.60;84.60;;;;;;10160332;29;20052;-78
2022/11/16 13:12:14;;;;;;;4.80;1.27;;;19.60;80.40;;;;;;10160048;29;20051;-78
2022/11/16 13:17:21;;;;;;;4.40;0.80;;;19.70;77.10;;;;;;10139377;29;20063;-78
2022/11/16 13:22:26;;;;;;;2.83;0.80;;;19.10;77.20;;;;;;10138193;29;20108;-78
2022/11/16 13:27:36;;;;;;;4.13;1.20;;;20.30;75.40;;;;;;10138077;29;20061;-77
2022/11/16 13:33:01;;;;;;;3.78;1.02;;;25.30;62.30;;;;;;10136469;29;20193;-76
2022/11/16 13:38:04;;;;;;;3.72;0.90;;;28.40;52.10;;;;;;10172503;29;20405;-77
2022/11/16 13:43:18;;;;;;;1.90;0.77;;;29.40;47.70;;;;;;10159257;29;20108;-78
2022/11/16 13:48:26;;;;;;;2.55;0.70;;;31.20;45.10;;;;;;10136363;29;20053;-78
2022/11/16 13:53:31;;;;;;;3.65;0.90;;;31.40;43.80;;;;;;10139060;29;20542;-77
2022/11/16 13:58:37;;;;;;;2.65;0.80;;;29.80;43.60;;;;;;10141626;29;20506;-76
2022/11/16 14:03:40;;;;;;;3.55;1.02;;;27.40;45.90;;;;;;10140995;29;20101;-76
2022/11/16 14:08:51;;;;;;;3.85;1.08;;;27.70;47.30;;;;;;10173112;29;20056;-75
2022/11/16 14:13:55;;;;;;;4.35;0.90;;;29.50;43.90;;;;;;10152168;29;20064;-77
2022/11/16 14:19:00;;;;;;;2.72;0.73;;;30.00;42.90;;;;;;10171531;29;20123;-77
2022/11/16 14:24:25;;;;;;;3.80;1.00;;;26.40;45.40;;;;;;10136470;29;20048;-79
2022/11/16 14:29:52;;;;;;;4.22;0.95;;;25.00;47.90;;;;;;10149218;29;20095;-77
2022/11/16 14:34:57;;;;;;;3.22;0.80;;;25.70;46.60;;;;;;10162334;29;20095;-78
2022/11/16 14:40:04;;;;;;;4.35;1.00;;;24.20;49.00;;;;;;10161398;29;20103;-78
2022/11/16 14:45:21;;;;;;;3.58;0.88;;;22.70;51.60;;;;;;10158872;29;20502;-76
2022/11/16 14:50:25;;;;;;;5.07;0.90;;;21.80;53.50;;;;;;10173112;29;20115;-76
2022/11/16 14:55:28;;;;;;;3.33;0.82;;;23.00;52.20;;;;;;10173078;29;20067;-79
2022/11/16 15:00:31;;;;;;;6.07;1.20;;;22.20;52.90;;;;;;10139248;29;20430;-78
2022/11/16 15:05:36;;;;;;;3.88;1.02;;;21.60;55.00;;;;;;10136650;29;20063;-78
2022/11/16 15:10:46;;;;;;;4.82;0.88;;;22.90;52.70;;;;;;10133197;29;20049;-76
2022/11/16 15:15:51;;;;;;;3.55;0.80;;;23.20;51.60;;;;;;10152982;29;20055;-77
2022/11/16 15:20:53;;;;;;;3.80;0.98;;;22.00;53.60;;;;;;10171484;29;20577;-77
2022/11/16 15:25:58;;;;;;;5.47;1.10;;;20.50;56.60;;;;;;10170809;29;20068;-76
2022/11/16 15:31:04;;;;;;;3.75;1.00;;;19.60;58.90;;;;;;10170425;29;20071;-77
2022/11/16 15:36:24;;;;;;;4.15;1.08;;;18.80;60.60;;;;;;10170995;29;20151;-76
2022/11/16 15:41:28;;;;;;;4.55;1.10;;;18.20;62.70;;;;;;10169285;29;20052;-77
2022/11/16 15:46:34;;;;;;;3.47;0.82;;;17.70;65.10;;;;;;10134448;29;20053;-75
2022/11/16 15:51:43;;;;;;;5.93;1.00;;;17.20;66.10;;;;;;10137579;29;20056;-78
2022/11/16 15:56:46;;;;;;;5.00;1.08;;;16.80;67.80;;;;;;10178556;29;20509;-77
2022/11/16 16:01:50;;;;;;;3.15;0.75;;;16.50;69.20;;;;;;10190355;29;20063;-76
2022/11/16 16:06:53;;;;;;;3.13;0.95;;;16.20;70.70;;;;;;10166736;29;20115;-78
2022/11/16 16:12:16;;;;;;;6.05;1.40;;;15.80;73.60;;;;;;10180927;29;20075;-77
2022/11/16 16:17:26;;;;;;;5.63;1.30;;;15.40;74.10;;;;;;10152299;29;20056;-77
2022/11/16 16:22:31;;;;;;;5.43;1.20;;;15.20;73.90;;;;;;10134911;29;20410;-78
2022/11/16 16:27:39;;;;;;;4.88;1.17;;;15.10;73.90;;;;;;10162691;29;20048;-79
2022/11/16 16:32:47;;;;;;;6.50;1.45;;;14.90;74.80;;;;;;10157089;29;20063;-77
2022/11/16 16:37:51;;;;;;;4.57;1.38;;;14.70;75.10;;;;;;10148462;29;20429;-79
2022/11/16 16:42:55;;;;;;;5.03;1.50;;;14.50;77.70;;;;;;10186790;29;20048;-78
2022/11/16 16:48:00;;;;;;;6.00;1.58;;;14.30;77.20;;;;;;10151809;29;20044;-77
2022/11/16 16:53:03;;;;;;;8.05;1.40;;;14.20;78.60;;;;;;10168921;29;20056;-76
2022/11/16 16:58:05;;;;;;;4.13;1.17;;;14.10;78.80;;;;;;10156007;29;20048;-77
2022/11/16 17:03:10;;;;;;;3.08;1.17;;;14.00;78.90;;;;;;10152441;29;20048;-78
2022/11/16 17:08:11;;;;;;;4.30;1.00;;;13.90;79.30;;;;;;10159660;29;20143;-78
2022/11/16 17:13:13;;;;;;;5.75;1.30;;;13.80;79.90;;;;;;10167991;29;20557;-79
2022/11/16 17:18:17;;;;;;;4.70;1.10;;;13.70;81.30;;;;;;10158962;29;20080;-80
2022/11/16 17:23:19;;;;;;;7.13;2.58;;;13.60;81.50;;;;;;10167146;29;20059;-76
2022/11/16 17:28:21;;;;;;;6.80;1.50;;;13.50;82.40;;;;;;10161468;29;20527;-78
2022/11/16 17:33:24;;;;;;;5.72;1.48;;;13.50;83.00;;;;;;10165998;29;20111;-78
2022/11/16 17:38:26;;;;;;;5.80;1.60;;;13.40;85.60;;;;;;10162055;29;20060;-78
2022/11/16 17:43:28;;;;;;;5.55;1.60;;;13.30;84.90;;;;;;10158231;29;20391;-78
2022/11/16 17:48:32;;;;;;;5.57;1.80;;;13.20;87.90;;;;;;10166744;29;20044;-77
2022/11/16 17:53:35;;;;;;;8.43;3.22;;;13.00;89.40;;;;;;10172381;29;20198;-76
2022/11/16 17:58:36;;;;;;;10.65;4.40;;;12.90;90.80;;;;;;10136454;29;20053;-78
2022/11/16 18:03:40;;;;;;;9.90;4.80;;;12.60;92.10;;;;;;10153371;29;20099;-78
2022/11/16 18:08:43;;;;;;;9.38;4.32;;;12.40;93.50;;;;;;10188824;29;20048;-76
2022/11/16 18:13:46;;;;;;;9.68;3.60;;;12.20;94.30;;;;;;10208415;29;20047;-78
2022/11/16 18:18:55;;;;;;;6.65;2.30;;;12.00;94.90;;;;;;10220867;29;20055;-77
2022/11/16 18:23:59;;;;;;;4.78;1.88;;;11.80;96.00;;;;;;10187604;29;20474;-78
2022/11/16 18:29:03;;;;;;;5.47;1.92;;;11.50;96.20;;;;;;10188374;29;20051;-78
2022/11/16 18:34:06;;;;;;;9.13;3.03;;;11.60;96.90;;;;;;10190516;29;20064;-79
2022/11/16 18:39:08;;;;;;;9.07;2.50;;;11.60;97.50;;;;;;10201432;29;20380;-79
2022/11/16 18:44:13;;;;;;;9.45;2.65;;;11.50;97.90;;;;;;10175537;29;20040;-79
2022/11/16 18:49:16;;;;;;;9.57;3.00;;;11.30;98.10;;;;;;10173966;29;20491;-77
2022/11/16 18:54:18;;;;;;;6.88;2.97;;;11.40;98.40;;;;;;10171968;29;20052;-77
2022/11/16 18:59:20;;;;;;;6.25;2.25;;;11.10;98.70;;;;;;10167916;29;20048;-79
2022/11/16 19:04:25;;;;;;;7.85;2.53;;;11.00;99.20;;;;;;10156881;29;20410;-76
2022/11/16 19:09:27;;;;;;;7.75;2.80;;;11.00;99.60;;;;;;10171658;29;20056;-77
2022/11/16 19:14:29;;;;;;;6.85;3.10;;;10.90;99.70;;;;;;10140380;29;20048;-75
2022/11/16 19:19:32;;;;;;;7.68;2.83;;;10.80;99.70;;;;;;10157478;29;20122;-77
2022/11/16 19:24:34;;;;;;;8.10;3.40;;;10.50;99.90;;;;;;10171298;29;20146;-78
2022/11/16 19:29:36;;;;;;;8.93;4.10;;;10.20;99.90;;;;;;10176158;29;20056;-78
2022/11/16 19:34:40;;;;;;;8.73;4.50;;;10.10;99.90;;;;;;10173860;29;20060;-79
2022/11/16 19:39:41;;;;;;;11.98;6.18;;;10.00;99.90;;;;;;10178807;29;20048;-76
2022/11/16 19:44:43;;;;;;;18.98;10.10;;;9.90;99.90;;;;;;10166328;29;20056;-76
2022/11/16 19:49:48;;;;;;;16.85;9.63;;;9.80;99.90;;;;;;10171333;29;20052;-79
2022/11/16 19:54:51;;;;;;;14.57;7.90;;;9.70;99.90;;;;;;10179892;29;20058;-77
2022/11/16 19:59:53;;;;;;;16.92;7.72;;;9.70;99.90;;;;;;10183108;29;20057;-75
2022/11/16 20:04:57;;;;;;;14.82;6.53;;;9.70;99.90;;;;;;10169204;29;20048;-76
2022/11/16 20:09:59;;;;;;;11.55;6.38;;;9.60;99.90;;;;;;10178120;29;20056;-78
2022/11/16 20:15:02;;;;;;;15.05;6.63;;;9.50;99.90;;;;;;10195973;29;20068;-77
2022/11/16 20:20:07;;;;;;;15.27;6.95;;;9.60;99.90;;;;;;10137890;29;20523;-77
2022/11/16 20:25:10;;;;;;;15.18;8.20;;;9.70;99.90;;;;;;10138674;29;20060;-78
2022/11/16 20:30:12;;;;;;;14.23;7.07;;;9.80;99.90;;;;;;10130826;29;20052;-80
2022/11/16 20:35:16;;;;;;;14.60;6.93;;;9.90;99.90;;;;;;10141512;29;20075;-78
2022/11/16 20:40:18;;;;;;;14.43;7.28;;;9.70;99.90;;;;;;10167840;29;20048;-81
2022/11/16 20:45:20;;;;;;;15.73;8.10;;;9.50;99.90;;;;;;10166704;29;20063;-77
2022/11/16 20:50:23;;;;;;;14.70;7.40;;;9.40;99.90;;;;;;10134188;29;20063;-80
2022/11/16 20:55:25;;;;;;;15.25;7.13;;;9.20;99.90;;;;;;10135041;29;20139;-79
2022/11/16 21:00:27;;;;;;;16.25;7.82;;;9.40;99.90;;;;;;10135477;29;20152;-78
2022/11/16 21:05:30;;;;;;;17.05;7.20;;;9.20;99.90;;;;;;10136161;29;20045;-77
2022/11/16 21:10:35;;;;;;;16.20;8.20;;;9.30;99.90;;;;;;10165236;29;20145;-79
2022/11/16 21:15:37;;;;;;;16.85;8.27;;;9.20;99.90;;;;;;10162105;29;20048;-78
2022/11/16 21:20:40;;;;;;;13.95;6.97;;;9.20;99.90;;;;;;10153972;29;20079;-79
2022/11/16 21:25:42;;;;;;;17.35;7.97;;;9.40;99.90;;;;;;10173315;29;20115;-79
2022/11/16 21:30:55;;;;;;;15.82;7.82;;;9.40;99.90;;;;;;10158956;29;20077;-78
2022/11/16 21:36:04;;;;;;;12.15;6.90;;;9.40;99.90;;;;;;10158336;29;20150;-78
2022/11/16 21:41:06;;;;;;;14.17;7.33;;;9.30;99.90;;;;;;10145392;29;20419;-76
2022/11/16 21:46:12;;;;;;;11.65;6.53;;;9.20;99.90;;;;;;10139600;29;20060;-76
2022/11/16 21:51:18;;;;;;;13.25;6.60;;;9.20;99.90;;;;;;10175836;29;20056;-78
2022/11/16 21:56:22;;;;;;;12.45;6.38;;;9.10;99.90;;;;;;10153913;29;20053;-77
2022/11/16 22:01:24;;;;;;;18.20;9.15;;;9.00;99.90;;;;;;10145269;29;20407;-76
2022/11/16 22:11:46;;;;;;;11.20;6.40;;;9.20;99.90;;;;;;10141286;29;20506;-76
2022/11/16 22:16:48;;;;;;;12.52;6.57;;;9.00;99.90;;;;;;10141490;29;20116;-77
2022/11/16 22:21:52;;;;;;;15.70;6.57;;;8.70;99.90;;;;;;10169734;29;20104;-78
2022/11/16 22:26:53;;;;;;;11.20;6.85;;;8.70;99.90;;;;;;10177246;29;20059;-78
2022/11/16 22:31:55;;;;;;;11.85;6.25;;;9.00;99.90;;;;;;10147990;29;20057;-78
2022/11/16 22:36:59;;;;;;;14.32;6.90;;;9.10;99.90;;;;;;10139985;29;20064;-79
2022/11/16 22:42:00;;;;;;;16.92;8.68;;;9.10;99.90;;;;;;10166890;29;20052;-77
2022/11/16 22:47:03;;;;;;;13.68;7.63;;;9.20;99.90;;;;;;10177887;29;20052;-77
2022/11/16 22:52:06;;;;;;;15.75;8.05;;;9.10;99.90;;;;;;10148280;29;20558;-78
2022/11/16 22:57:08;;;;;;;12.73;6.68;;;9.10;99.90;;;;;;10146746;29;20111;-79
